Time;durP1;ratioP1;P1;durP2;ratioP2;P2;SDS_P1;SDS_P2;PMS_P1;PMS_P2;Temp;Humidity;BMP_temperature;BMP_pressure;BME280_temperature;BME280_humidity;BME280_pressure;Samples;Min_cycle;Max_cycle;Signal;HPM_P1;HPM_P2
2024/03/02 13:28:25;;;;;;;;;;;;;;;;;;5099497;23;20383;-91
2024/03/02 13:30:56;;;;;;;;;;;;;;;;;;4952929;28;19973;-92
2024/03/02 13:33:24;;;;;;;;;;;;;;;;;;4973512;28;19925;-92
2024/03/02 13:35:50;;;;;;;;;;;;;;;;;;4961657;28;19923;-92
2024/03/02 13:38:19;;;;;;;;;;;;;;;;;;4958570;28;19914;-92
2024/03/02 13:40:45;;;;;;;;;;;;;;;;;;4969613;28;19977;-91
2024/03/02 13:43:16;;;;;;;;;;;;;;;;;;4967457;28;20356;-92
2024/03/02 13:45:42;;;;;;;;;;;;;;;;;;4967315;28;19913;-92
2024/03/02 13:48:07;;;;;;;;;;;;;;;;;;4966777;28;19914;-90
2024/03/02 13:50:34;;;;;;;;;;;;;;;;;;4976308;28;19914;-92
2024/03/02 13:52:59;;;;;;;;;;;;;;;;;;4975618;28;20313;-92
2024/03/02 13:55:26;;;;;;;;;;;;;;;;;;4976818;28;19937;-92
2024/03/02 13:57:51;;;;;;;;;;;;;;;;;;4999121;23;19921;-91
2024/03/02 14:00:18;;;;;;;;;;;;;;;;;;4992060;28;20368;-91
2024/03/02 14:02:46;;;;;;;;;;;;;;;;;;4967334;28;19913;-92
2024/03/02 14:05:13;;;;;;;;;;;;;;;;;;4996531;28;19914;-90
2024/03/02 14:07:40;;;;;;;;;;;;;;;;;;5000508;28;20356;-92
2024/03/02 14:10:06;;;;;;;;;;;;;;;;;;4981077;28;19925;-91
2024/03/02 14:12:33;;;;;;;;;;;;;;;;;;5018996;28;19910;-90
2024/03/02 14:14:59;;;;;;;;;;;;;;;;;;4982684;28;20368;-90
2024/03/02 14:17:24;;;;;;;;;;;;;;;;;;5009302;28;19913;-90
2024/03/02 14:19:53;;;;;;;;;;;;;;;;;;4996553;28;19914;-91
2024/03/02 14:22:19;;;;;;;;;;;;;;;;;;5000476;28;20271;-90
2024/03/02 14:24:44;;;;;;;;;;;;;;;;;;5002331;28;19920;-92
2024/03/02 14:27:10;;;;;;;;;;;;;;;;;;4988055;28;20379;-92
2024/03/02 14:29:39;;;;;;;;;;;;;;;;;;4996880;28;19925;-92
2024/03/02 14:32:06;;;;;;;;;;;;;;;;;;4996183;28;20272;-91
2024/03/02 14:34:31;;;;;;;;;;;;;;;;;;4995860;28;19921;-93
2024/03/02 14:36:57;;;;;;;;;;;;;;;;;;4999219;28;19913;-92
2024/03/02 14:39:22;;;;;;;;;;;;;;;;;;5014508;28;19913;-93
2024/03/02 14:41:48;;;;;;;;;;;;;;;;;;4993707;28;19922;-93
2024/03/02 14:44:17;;;;;;;;;;;;;;;;;;4989628;28;19910;-92
2024/03/02 14:46:43;;;;;;;;;;;;;;;;;;4973406;28;20352;-92
2024/03/02 14:49:10;;;;;;;;;;;;;;;;;;5000726;28;20022;-92
2024/03/02 14:51:36;;;;;;;;;;;;;;;;;;4999436;28;20003;-93
2024/03/02 14:54:01;;;;;;;;;;;;;;;;;;5003832;28;19949;-93
2024/03/02 14:56:28;;;;;;;;;;;;;;;;;;4985912;28;19921;-94
2024/03/02 14:58:53;;;;;;;;;;;;;;;;;;4994746;28;20360;-92
2024/03/02 15:01:22;;;;;;;;;;;;;;;;;;4983915;28;19918;-93
2024/03/02 15:03:50;;;;;;;;;;;;;;;;;;4983295;28;19920;-93
2024/03/02 15:06:19;;;;;;;;;;;;;;;;;;4979890;28;19914;-95
2024/03/02 15:08:48;;;;;;;;;;;;;;;;;;5000174;28;19945;-95
2024/03/02 15:11:14;;;;;;;;;;;;;;;;;;4976364;28;19914;-96
2024/03/02 15:13:40;;;;;;;;;;;;;;;;;;5007594;28;19924;-96
2024/03/02 15:16:05;;;;;;;;;;;;;;;;;;4998382;28;19913;-96
2024/03/02 15:18:31;;;;;;;;;;;;;;;;;;4994738;28;19913;-96
2024/03/02 15:20:57;;;;;;;;;;;;;;;;;;5002667;28;19976;-94
2024/03/02 15:23:36;;;;;;;;;;;;;;;;;;5003677;28;19920;-92
2024/03/02 15:26:05;;;;;;;;;;;;;;;;;;5002054;28;19963;-90
2024/03/02 15:28:37;;;;;;;;;;;;;;;;;;4986902;28;20008;-93
2024/03/02 15:31:11;;;;;;;;;;;;;;;;;;4978089;28;20000;-93
2024/03/02 15:33:37;;;;;;;;;;;;;;;;;;5021441;28;19913;-91
2024/03/02 15:36:05;;;;;;;;;;;;;;;;;;5004642;28;19963;-96
2024/03/02 15:38:36;;;;;;;;;;;;;;;;;;5002783;28;19913;-96
2024/03/02 15:41:02;;;;;;;;;;;;;;;;;;5001679;28;19914;-93
2024/03/02 15:43:35;;;;;;;;;;;;;;;;;;5002372;28;19984;-96
2024/03/02 15:46:03;;;;;;;;;;;;;;;;;;4981952;28;19956;-96
2024/03/02 15:48:38;;;;;;;;;;;;;;;;;;4981651;28;19964;-93
2024/03/02 15:51:06;;;;;;;;;;;;;;;;;;4982062;28;19914;-93
2024/03/02 15:53:32;;;;;;;;;;;;;;;;;;4983008;28;19914;-93
2024/03/02 15:55:57;;;;;;;;;;;;;;;;;;4986583;28;19914;-93
2024/03/02 15:58:23;;;;;;;;;;;;;;;;;;4986295;28;19940;-90
2024/03/02 16:00:48;;;;;;;;;;;;;;;;;;4984822;28;19926;-95
2024/03/02 16:03:20;;;;;;;;;;;;;;;;;;4981374;28;20276;-92
2024/03/02 16:05:52;;;;;;;;;;;;;;;;;;4981891;28;20426;-92
2024/03/02 16:08:20;;;;;;;;;;;;;;;;;;4982249;28;19960;-96
2024/03/02 16:10:46;;;;;;;;;;;;;;;;;;5000941;28;19909;-92
2024/03/02 16:13:11;;;;;;;;;;;;;;;;;;4979751;28;19918;-91
2024/03/02 16:15:36;;;;;;;;;;;;;;;;;;4967105;28;19914;-92
2024/03/02 16:18:02;;;;;;;;;;;;;;;;;;4964940;28;19914;-92
2024/03/02 16:20:37;;;;;;;;;;;;;;;;;;4965276;28;20372;-96
2024/03/02 17:36:11;;;;;;;;;;;;;;;;;;4965591;28;19917;-89
2024/03/02 17:38:36;;;;;;;;;;;;;;;;;;4976130;28;19918;-89
2024/03/02 17:41:04;;;;;;;;;;;;;;;;;;4976537;28;19920;-89
2024/03/02 17:43:29;;;;;;;;;;;;;;;;;;4959373;28;20012;-89
2024/03/02 17:45:54;;;;;;;;;;;;;;;;;;4977005;28;19945;-89
2024/03/02 17:48:21;;;;;;;;;;;;;;;;;;4959336;28;19921;-89
2024/03/02 17:50:47;;;;;;;;;;;;;;;;;;4959558;28;19920;-90
2024/03/02 17:53:12;;;;;;;;;;;;;;;;;;4959391;28;19996;-90
2024/03/02 17:55:37;;;;;;;;;;;;;;;;;;4959429;28;20284;-89
2024/03/02 17:58:03;;;;;;;;;;;;;;;;;;4959279;28;19910;-90
2024/03/02 18:00:29;;;;;;;;;;;;;;;;;;4976598;28;19914;-89
2024/03/02 18:02:54;;;;;;;;;;;;;;;;;;4959238;28;19937;-89
2024/03/02 18:05:19;;;;;;;;;;;;;;;;;;4960443;28;19916;-90
2024/03/02 18:07:45;;;;;;;;;;;;;;;;;;4959457;28;20372;-90
2024/03/02 18:10:10;;;;;;;;;;;;;;;;;;4959517;28;19914;-90
2024/03/02 18:12:36;;;;;;;;;;;;;;;;;;4959187;28;19917;-90
2024/03/02 18:15:02;;;;;;;;;;;;;;;;;;4958877;28;19985;-90
2024/03/02 18:17:27;;;;;;;;;;;;;;;;;;4959101;28;20377;-91
2024/03/02 18:19:52;;;;;;;;;;;;;;;;;;4959054;28;20074;-90
2024/03/02 18:22:18;;;;;;;;;;;;;;;;;;4959121;28;20361;-91
2024/03/02 18:24:47;;;;;;;;;;;;;;;;;;4956140;29;19937;-91
2024/03/02 18:27:12;;;;;;;;;;;;;;;;;;4939821;29;19926;-88
2024/03/02 18:29:38;;;;;;;;;;;;;;;;;;4939987;29;20305;-88
2024/03/02 18:32:03;;;;;;;;;;;;;;;;;;4956537;28;20349;-89
2024/03/02 18:34:29;;;;;;;;;;;;;;;;;;4939635;29;19915;-90
2024/03/02 18:36:54;;;;;;;;;;;;;;;;;;4939633;29;20277;-89
2024/03/02 18:39:20;;;;;;;;;;;;;;;;;;4939564;29;20017;-88
2024/03/02 18:41:45;;;;;;;;;;;;;;;;;;4939390;29;19922;-88
2024/03/02 18:44:10;;;;;;;;;;;;;;;;;;4939456;29;19922;-88
2024/03/02 18:46:36;;;;;;;;;;;;;;;;;;4939550;29;19922;-89
2024/03/02 18:49:01;;;;;;;;;;;;;;;;;;4939277;29;19926;-88
2024/03/02 18:51:26;;;;;;;;;;;;;;;;;;4939414;29;19914;-87
2024/03/02 18:53:52;;;;;;;;;;;;;;;;;;4939574;29;20317;-89
2024/03/02 18:56:17;;;;;;;;;;;;;;;;;;4939961;28;19918;-91
2024/03/02 18:58:43;;;;;;;;;;;;;;;;;;4975769;28;19964;-91
2024/03/02 19:01:08;;;;;;;;;;;;;;;;;;4975020;28;19914;-91
2024/03/02 19:03:36;;;;;;;;;;;;;;;;;;4974852;28;20436;-91
2024/03/02 19:06:02;;;;;;;;;;;;;;;;;;4974470;28;20384;-91
2024/03/02 19:08:31;;;;;;;;;;;;;;;;;;4975049;28;19922;-93
2024/03/02 19:10:57;;;;;;;;;;;;;;;;;;4974741;28;20386;-92
2024/03/02 19:13:23;;;;;;;;;;;;;;;;;;4974348;28;20010;-91
2024/03/02 19:15:49;;;;;;;;;;;;;;;;;;4974730;28;19918;-90
2024/03/02 19:18:15;;;;;;;;;;;;;;;;;;4974974;28;20021;-91
2024/03/02 19:20:40;;;;;;;;;;;;;;;;;;4974274;28;19973;-89
2024/03/02 19:23:06;;;;;;;;;;;;;;;;;;4961212;28;19925;-90
2024/03/02 19:25:31;;;;;;;;;;;;;;;;;;4978127;28;19992;-91
2024/03/02 19:27:57;;;;;;;;;;;;;;;;;;4978163;28;19957;-90
2024/03/02 19:30:22;;;;;;;;;;;;;;;;;;4978281;28;19917;-89
2024/03/02 19:32:47;;;;;;;;;;;;;;;;;;4977875;28;19976;-89
2024/03/02 19:35:13;;;;;;;;;;;;;;;;;;4977916;28;20332;-89
2024/03/02 19:37:38;;;;;;;;;;;;;;;;;;4962621;28;20345;-90
2024/03/02 19:40:04;;;;;;;;;;;;;;;;;;4961717;28;20419;-88
2024/03/02 19:42:30;;;;;;;;;;;;;;;;;;4962011;28;19914;-91
2024/03/02 19:44:55;;;;;;;;;;;;;;;;;;4961953;28;20371;-90
2024/03/02 19:47:21;;;;;;;;;;;;;;;;;;4962170;28;19918;-90
2024/03/02 19:49:48;;;;;;;;;;;;;;;;;;4961579;28;20052;-92
2024/03/02 19:52:13;;;;;;;;;;;;;;;;;;4966454;28;19918;-91
2024/03/02 19:54:38;;;;;;;;;;;;;;;;;;4960964;28;19925;-90
2024/03/02 19:57:04;;;;;;;;;;;;;;;;;;4973951;28;19941;-92
2024/03/02 19:59:29;;;;;;;;;;;;;;;;;;4977022;28;19914;-90
2024/03/02 20:01:55;;;;;;;;;;;;;;;;;;4963283;28;19924;-89
2024/03/02 20:04:26;;;;;;;;;;;;;;;;;;4959510;28;19949;-90
2024/03/02 20:06:52;;;;;;;;;;;;;;;;;;4952637;28;20008;-91
2024/03/02 20:09:17;;;;;;;;;;;;;;;;;;4973419;28;19961;-91
2024/03/02 20:11:43;;;;;;;;;;;;;;;;;;4958802;28;19921;-91
2024/03/02 20:14:11;;;;;;;;;;;;;;;;;;4972657;28;19914;-90
2024/03/02 20:16:37;;;;;;;;;;;;;;;;;;4961528;28;20004;-90
2024/03/02 20:19:02;;;;;;;;;;;;;;;;;;4961756;28;20396;-91
2024/03/02 20:21:28;;;;;;;;;;;;;;;;;;4961793;28;19936;-88
2024/03/02 20:23:54;;;;;;;;;;;;;;;;;;4964195;28;19921;-91
2024/03/02 20:26:19;;;;;;;;;;;;;;;;;;4960630;28;19914;-90
2024/03/02 20:28:44;;;;;;;;;;;;;;;;;;4957919;29;20035;-90
2024/03/02 20:31:11;;;;;;;;;;;;;;;;;;4972622;28;19921;-90
2024/03/02 20:33:36;;;;;;;;;;;;;;;;;;4959588;28;19918;-91
2024/03/02 20:36:02;;;;;;;;;;;;;;;;;;4967907;28;19933;-90
2024/03/02 20:38:28;;;;;;;;;;;;;;;;;;4951632;29;20444;-90
2024/03/02 20:40:54;;;;;;;;;;;;;;;;;;4959597;28;19915;-90
2024/03/02 20:43:19;;;;;;;;;;;;;;;;;;4955574;28;19913;-90
2024/03/02 20:45:45;;;;;;;;;;;;;;;;;;4957144;28;20384;-92
2024/03/02 20:48:10;;;;;;;;;;;;;;;;;;4954110;28;20004;-91
2024/03/02 20:50:36;;;;;;;;;;;;;;;;;;4964002;28;19918;-90
2024/03/02 20:53:06;;;;;;;;;;;;;;;;;;4951668;28;19914;-89
2024/03/02 20:55:32;;;;;;;;;;;;;;;;;;4960387;28;19914;-91
2024/03/02 20:57:57;;;;;;;;;;;;;;;;;;4951634;28;19925;-90
2024/03/02 21:00:23;;;;;;;;;;;;;;;;;;4954998;28;19940;-91
2024/03/02 21:02:49;;;;;;;;;;;;;;;;;;4968336;28;19918;-91
2024/03/02 21:05:14;;;;;;;;;;;;;;;;;;4978171;28;19910;-91
2024/03/02 21:07:40;;;;;;;;;;;;;;;;;;4977137;28;19921;-90
2024/03/02 21:10:05;;;;;;;;;;;;;;;;;;4959781;28;19914;-90
2024/03/02 21:12:31;;;;;;;;;;;;;;;;;;4960106;28;19910;-90
2024/03/02 21:14:56;;;;;;;;;;;;;;;;;;4959868;28;20431;-90
2024/03/02 21:17:22;;;;;;;;;;;;;;;;;;4959369;28;19917;-90
2024/03/02 21:19:48;;;;;;;;;;;;;;;;;;4956633;29;20276;-90
2024/03/02 21:22:14;;;;;;;;;;;;;;;;;;4959236;28;19914;-90
2024/03/02 21:24:42;;;;;;;;;;;;;;;;;;4956472;29;19915;-89
2024/03/02 21:27:09;;;;;;;;;;;;;;;;;;4956465;29;20385;-90
2024/03/02 21:29:35;;;;;;;;;;;;;;;;;;4959525;28;19937;-90
2024/03/02 21:32:00;;;;;;;;;;;;;;;;;;4959397;28;20320;-90
2024/03/02 21:34:27;;;;;;;;;;;;;;;;;;4959428;28;19939;-89
2024/03/02 21:36:53;;;;;;;;;;;;;;;;;;4955803;29;20009;-89
2024/03/02 21:39:18;;;;;;;;;;;;;;;;;;4955606;28;19969;-91
2024/03/02 21:41:44;;;;;;;;;;;;;;;;;;4959162;28;19958;-90
2024/03/02 21:44:09;;;;;;;;;;;;;;;;;;4976500;28;19936;-90
2024/03/02 21:46:35;;;;;;;;;;;;;;;;;;4965674;28;19922;-90
2024/03/02 21:49:01;;;;;;;;;;;;;;;;;;4976453;28;19914;-90
2024/03/02 21:51:27;;;;;;;;;;;;;;;;;;4963966;28;19921;-90
2024/03/02 21:53:53;;;;;;;;;;;;;;;;;;4959161;28;20048;-89
2024/03/02 21:56:18;;;;;;;;;;;;;;;;;;4959038;28;20376;-90
2024/03/02 21:58:44;;;;;;;;;;;;;;;;;;4958734;28;20012;-91
2024/03/02 22:01:10;;;;;;;;;;;;;;;;;;4958926;28;19914;-90
2024/03/02 22:03:36;;;;;;;;;;;;;;;;;;4968683;28;19917;-91
2024/03/02 22:06:01;;;;;;;;;;;;;;;;;;4973661;28;19920;-90
2024/03/02 22:08:27;;;;;;;;;;;;;;;;;;4966450;28;19961;-89
2024/03/02 22:10:53;;;;;;;;;;;;;;;;;;4958975;28;19968;-90
2024/03/02 22:13:18;;;;;;;;;;;;;;;;;;4959057;28;19968;-90
2024/03/02 22:15:44;;;;;;;;;;;;;;;;;;4958070;28;19914;-90
2024/03/02 22:18:10;;;;;;;;;;;;;;;;;;4946230;28;19914;-91
2024/03/02 22:20:35;;;;;;;;;;;;;;;;;;4968163;28;19925;-90
2024/03/02 22:23:00;;;;;;;;;;;;;;;;;;4960131;28;19921;-90
2024/03/02 22:25:26;;;;;;;;;;;;;;;;;;4967572;28;19960;-91
2024/03/02 22:27:55;;;;;;;;;;;;;;;;;;4958773;28;19953;-91
2024/03/02 22:30:22;;;;;;;;;;;;;;;;;;4958801;28;19960;-91
2024/03/02 22:32:47;;;;;;;;;;;;;;;;;;4970511;28;19914;-90
2024/03/02 22:35:13;;;;;;;;;;;;;;;;;;4958632;28;19914;-90
2024/03/02 22:37:38;;;;;;;;;;;;;;;;;;4968734;28;19914;-91
2024/03/02 22:40:04;;;;;;;;;;;;;;;;;;4972461;28;19914;-91
2024/03/02 22:42:30;;;;;;;;;;;;;;;;;;4958726;28;19960;-91
2024/03/02 22:44:55;;;;;;;;;;;;;;;;;;4958803;28;19914;-92
2024/03/02 22:47:20;;;;;;;;;;;;;;;;;;4958780;28;20016;-91
2024/03/02 22:49:46;;;;;;;;;;;;;;;;;;4970502;28;20004;-91
2024/03/02 22:52:11;;;;;;;;;;;;;;;;;;4971133;28;19961;-91
2024/03/02 22:54:36;;;;;;;;;;;;;;;;;;4958997;28;19914;-91
2024/03/02 22:57:02;;;;;;;;;;;;;;;;;;4960270;28;20006;-90
2024/03/02 22:59:27;;;;;;;;;;;;;;;;;;4966111;28;19940;-90
2024/03/02 23:01:54;;;;;;;;;;;;;;;;;;4959108;28;19915;-89
2024/03/02 23:04:19;;;;;;;;;;;;;;;;;;4962040;28;20281;-90
2024/03/02 23:06:44;;;;;;;;;;;;;;;;;;4962164;28;19914;-91
2024/03/02 23:09:11;;;;;;;;;;;;;;;;;;4961853;28;20376;-90
2024/03/02 23:11:37;;;;;;;;;;;;;;;;;;4962070;28;19921;-91
2024/03/02 23:14:04;;;;;;;;;;;;;;;;;;4951352;29;19957;-92
